Time;durP1;ratioP1;P1;durP2;ratioP2;P2;SDS_P1;SDS_P2;PMS_P1;PMS_P2;Temp;Humidity;BMP_temperature;BMP_pressure;BME280_temperature;BME280_humidity;BME280_pressure;Samples;Min_cycle;Max_cycle;Signal;HPM_P1;HPM_P2
2023/10/30 00:01:09;;;;;;;0.43;0.43;;;;;;;12.39;100.00;97314.09;7393193;19;20010;-79
2023/10/30 00:03:35;;;;;;;0.43;0.10;;;;;;;14.17;100.00;97312.84;7392165;19;20014;-79
2023/10/30 00:06:02;;;;;;;0.20;0.20;;;;;;;13.80;100.00;97319.19;7396661;19;20015;-79
2023/10/30 00:08:29;;;;;;;0.10;0.10;;;;;;;12.86;100.00;97311.72;7391482;19;20414;-78
2023/10/30 00:10:55;;;;;;;0.25;0.20;;;;;;;14.99;100.00;97316.75;7392112;19;20007;-79
2023/10/30 00:13:21;;;;;;;0.10;0.10;;;;;;;15.99;100.00;97307.94;7391303;19;20034;-79
2023/10/30 00:15:47;;;;;;;0.30;0.30;;;;;;;12.23;100.00;97310.44;7394676;19;20065;-79
2023/10/30 00:18:13;;;;;;;0.20;0.20;;;;;;;12.11;100.00;97310.00;7392067;19;20007;-78
2023/10/30 00:20:39;;;;;;;0.10;0.00;;;;;;;12.55;100.00;97326.81;7392411;19;20073;-79
2023/10/30 00:23:05;;;;;;;0.17;0.17;;;;;;;14.64;100.00;97326.97;7393849;19;20021;-79
2023/10/30 00:25:31;;;;;;;0.80;0.80;;;;;;;16.13;100.00;97325.97;7394045;19;20514;-79
2023/10/30 00:28:00;;;;;;;0.30;0.30;;;;;;;16.37;100.00;97325.16;7391365;19;20055;-79
2023/10/30 00:30:27;;;;;;;0.68;0.65;;;;;;;14.29;100.00;97325.19;7392408;19;20052;-79
2023/10/30 00:32:53;;;;;;;0.20;0.20;;;;;;;14.78;100.00;97314.22;7391207;19;20007;-78
2023/10/30 00:35:19;;;;;;;0.50;0.30;;;;;;;15.84;100.00;97313.66;7392756;19;20014;-79
2023/10/30 00:37:45;;;;;;;0.10;0.10;;;;;;;11.99;100.00;97324.78;7390413;19;20007;-78
2023/10/30 00:40:12;;;;;;;9.25;1.25;;;;;;;15.10;100.00;97328.28;7392312;19;20018;-79
2023/10/30 00:42:38;;;;;;;1.58;0.30;;;;;;;16.37;100.00;97330.78;7391174;19;20464;-78
2023/10/30 00:45:05;;;;;;;0.10;0.10;;;;;;;12.38;100.00;97327.28;7392005;19;20452;-78
2023/10/30 00:47:32;;;;;;;0.40;0.40;;;;;;;11.90;100.00;97339.22;7389937;19;20006;-79
2023/10/30 00:49:58;;;;;;;0.10;0.10;;;;;;;15.64;100.00;97323.16;7390421;19;20018;-79
2023/10/30 00:52:24;;;;;;;0.47;0.47;;;;;;;12.68;100.00;97335.81;7388323;19;20038;-79
2023/10/30 00:54:50;;;;;;;0.85;0.52;;;;;;;14.98;100.00;97338.44;7391869;19;20038;-78
2023/10/30 00:57:16;;;;;;;0.10;0.10;;;;;;;16.74;100.00;97336.66;7389661;19;20073;-78
2023/10/30 00:59:43;;;;;;;6.35;1.65;;;;;;;18.47;100.00;97336.28;7389752;19;20006;-78
2023/10/30 01:02:09;;;;;;;0.10;0.10;;;;;;;14.60;100.00;97340.59;7389370;19;20349;-79
2023/10/30 01:04:35;;;;;;;0.30;0.30;;;;;;;11.39;100.00;97348.00;7391795;19;20015;-79
2023/10/30 01:07:02;;;;;;;0.10;0.00;;;;;;;10.78;100.00;97350.63;7390929;19;20017;-79
2023/10/30 01:09:28;;;;;;;0.10;0.00;;;;;;;13.14;100.00;97350.78;7390847;19;20472;-78
2023/10/30 01:11:55;;;;;;;0.10;0.10;;;;;;;11.04;100.00;97345.03;7390728;19;20087;-79
2023/10/30 01:14:22;;;;;;;0.90;0.80;;;;;;;10.70;100.00;97349.78;7389325;19;20014;-79
2023/10/30 01:16:49;;;;;;;0.55;0.55;;;;;;;10.73;100.00;97354.28;7390977;19;20014;-79
2023/10/30 01:19:15;;;;;;;0.10;0.10;;;;;;;12.49;100.00;97345.78;7392486;19;20385;-79
2023/10/30 01:21:42;;;;;;;0.20;0.20;;;;;;;14.20;100.00;97348.13;7389924;19;20025;-79
2023/10/30 01:24:08;;;;;;;0.10;0.10;;;;;;;16.79;100.00;97341.25;7393845;19;20022;-79
2023/10/30 01:26:35;;;;;;;0.22;0.22;;;;;;;15.50;100.00;97353.56;7390980;19;20019;-80
2023/10/30 01:29:01;;;;;;;0.13;0.13;;;;;;;14.12;100.00;97361.38;7389656;19;20453;-80
2023/10/30 01:31:27;;;;;;;0.20;0.00;;;;;;;13.30;100.00;97357.88;7388525;19;20502;-79
2023/10/30 01:33:54;;;;;;;2.65;0.43;;;;;;;13.07;100.00;97356.31;7391601;19;20011;-79
2023/10/30 01:36:20;;;;;;;0.43;0.43;;;;;;;13.03;100.00;97362.25;7389975;19;20014;-79
2023/10/30 01:38:47;;;;;;;0.13;0.13;;;;;;;13.09;100.00;97360.06;7390654;19;20043;-79
2023/10/30 01:41:13;;;;;;;0.40;0.40;;;;;;;12.72;100.00;97352.22;7389753;19;19998;-79
2023/10/30 01:43:39;;;;;;;0.10;0.03;;;;;;;12.05;100.00;97351.25;7391070;19;20006;-79
2023/10/30 01:46:08;;;;;;;0.15;0.15;;;;;;;12.38;100.00;97349.63;7392519;19;20009;-79
2023/10/30 01:48:35;;;;;;;0.30;0.30;;;;;;;12.81;100.00;97357.28;7387929;19;20018;-79
2023/10/30 01:51:04;;;;;;;0.10;0.10;;;;;;;12.62;100.00;97349.22;7388915;19;20022;-79
2023/10/30 01:53:32;;;;;;;0.30;0.30;;;;;;;12.51;100.00;97357.88;7386608;19;20018;-79
2023/10/30 01:56:00;;;;;;;0.10;0.10;;;;;;;12.41;100.00;97356.16;7388842;19;20010;-79
2023/10/30 01:58:26;;;;;;;0.17;0.17;;;;;;;12.71;100.00;97364.69;7388018;19;20013;-79
2023/10/30 02:00:53;;;;;;;0.10;0.10;;;;;;;14.72;100.00;97358.53;7388664;19;20014;-79
2023/10/30 02:03:19;;;;;;;0.10;0.10;;;;;;;12.58;100.00;97359.22;7388140;19;20010;-79
2023/10/30 02:05:46;;;;;;;0.10;0.10;;;;;;;12.69;100.00;97364.50;7387651;19;20449;-79
2023/10/30 02:08:13;;;;;;;0.57;0.57;;;;;;;13.17;100.00;97366.41;7390534;19;20018;-79
2023/10/30 02:10:39;;;;;;;0.43;0.38;;;;;;;13.03;100.00;97356.66;7389819;19;20026;-79
2023/10/30 02:13:12;;;;;;;0.20;0.20;;;;;;;13.29;100.00;97353.63;7389394;19;20002;-79
2023/10/30 02:15:38;;;;;;;0.10;0.10;;;;;;;13.40;100.00;97358.09;7391027;19;20025;-79
2023/10/30 02:18:04;;;;;;;0.10;0.10;;;;;;;14.31;100.00;97362.50;7390187;19;20497;-79
2023/10/30 02:20:32;;;;;;;0.10;0.10;;;;;;;13.57;100.00;97359.09;7387376;19;20011;-79
2023/10/30 02:22:58;;;;;;;0.38;0.15;;;;;;;13.64;100.00;97358.34;7389011;19;20010;-79
2023/10/30 02:25:25;;;;;;;0.10;0.10;;;;;;;13.40;100.00;97361.66;7388856;19;20058;-79
2023/10/30 02:27:52;;;;;;;0.10;0.10;;;;;;;12.58;100.00;97356.44;7384136;19;20402;-79
2023/10/30 02:30:19;;;;;;;0.22;0.17;;;;;;;12.86;100.00;97367.56;7383139;19;20014;-79
2023/10/30 02:32:47;;;;;;;0.10;0.10;;;;;;;13.34;100.00;97369.44;7385126;19;20053;-79
2023/10/30 02:35:16;;;;;;;6.57;0.40;;;;;;;13.88;100.00;97370.31;7383745;19;20014;-79
2023/10/30 02:37:43;;;;;;;0.10;0.10;;;;;;;13.53;100.00;97366.34;7381270;19;20021;-79
2023/10/30 02:40:10;;;;;;;0.10;0.10;;;;;;;12.71;100.00;97370.28;7387518;19;20010;-79
2023/10/30 02:42:37;;;;;;;0.10;0.10;;;;;;;12.75;100.00;97370.69;7385965;19;20011;-79
2023/10/30 02:45:04;;;;;;;0.80;0.40;;;;;;;13.08;100.00;97361.34;7388439;19;20013;-79
2023/10/30 02:47:31;;;;;;;0.10;0.00;;;;;;;12.99;100.00;97377.88;7388168;19;20021;-79
2023/10/30 02:49:58;;;;;;;6.85;0.35;;;;;;;13.17;100.00;97369.22;7389068;19;20062;-79
2023/10/30 02:52:24;;;;;;;0.38;0.30;;;;;;;13.10;100.00;97361.56;7388826;19;20017;-79
2023/10/30 02:54:50;;;;;;;0.10;0.10;;;;;;;13.06;100.00;97366.75;7389298;19;20406;-79
2023/10/30 02:57:16;;;;;;;0.10;0.10;;;;;;;12.43;100.00;97362.66;7387281;19;20052;-79
2023/10/30 02:59:42;;;;;;;0.43;0.43;;;;;;;13.08;100.00;97366.94;7388949;19;20023;-79
2023/10/30 03:02:10;;;;;;;0.17;0.17;;;;;;;13.83;100.00;97360.81;7388611;19;20354;-79
2023/10/30 03:04:36;;;;;;;0.38;0.38;;;;;;;13.44;100.00;97356.44;7390140;19;20032;-79
2023/10/30 03:07:02;;;;;;;0.10;0.10;;;;;;;13.07;100.00;97364.69;7396006;19;20007;-79
2023/10/30 03:09:31;;;;;;;0.10;0.10;;;;;;;12.90;100.00;97354.00;7396009;19;20007;-78
2023/10/30 03:11:58;;;;;;;0.20;0.20;;;;;;;12.89;100.00;97358.06;7396429;19;20007;-79
2023/10/30 03:14:25;;;;;;;0.10;0.10;;;;;;;12.50;100.00;97359.16;7393627;19;20356;-79
2023/10/30 03:16:51;;;;;;;0.28;0.25;;;;;;;12.68;100.00;97360.22;7397585;19;20017;-79
2023/10/30 03:19:18;;;;;;;0.20;0.15;;;;;;;12.73;100.00;97362.81;7394595;19;20002;-79
2023/10/30 03:21:44;;;;;;;0.10;0.10;;;;;;;12.62;100.00;97363.16;7394626;19;20363;-79
2023/10/30 03:24:10;;;;;;;0.10;0.10;;;;;;;12.53;100.00;97371.28;7394583;19;20066;-79
2023/10/30 03:26:36;;;;;;;0.17;0.17;;;;;;;12.65;100.00;97366.88;7394193;19;20007;-79
2023/10/30 03:29:03;;;;;;;0.80;0.43;;;;;;;12.45;100.00;97376.09;7396016;19;20006;-79
2023/10/30 03:31:29;;;;;;;0.10;0.10;;;;;;;12.39;100.00;97384.59;7392815;19;20035;-79
2023/10/30 03:33:55;;;;;;;0.20;0.20;;;;;;;12.07;100.00;97381.38;7394203;19;20007;-78
2023/10/30 03:36:24;;;;;;;0.20;0.20;;;;;;;11.90;100.00;97384.59;7393495;19;20003;-79
2023/10/30 03:38:51;;;;;;;0.63;0.40;;;;;;;11.99;100.00;97381.31;7395000;19;20010;-79
2023/10/30 03:41:20;;;;;;;2.47;0.30;;;;;;;12.58;100.00;97384.34;7393151;19;20011;-79
2023/10/30 03:43:47;;;;;;;0.20;0.20;;;;;;;13.24;100.00;97387.31;7392355;19;20011;-79
2023/10/30 03:46:13;;;;;;;0.10;0.10;;;;;;;13.16;100.00;97386.53;7395397;19;20002;-79
2023/10/30 03:48:41;;;;;;;0.10;0.10;;;;;;;13.41;100.00;97391.09;7392043;19;20035;-79
2023/10/30 03:51:08;;;;;;;0.10;0.00;;;;;;;15.41;100.00;97389.84;7393107;19;20770;-78
2023/10/30 03:53:34;;;;;;;0.38;0.20;;;;;;;12.82;100.00;97392.31;7394308;19;20469;-79
2023/10/30 03:56:05;;;;;;;0.10;0.10;;;;;;;14.34;100.00;97394.97;7395923;19;20010;-79
2023/10/30 03:58:31;;;;;;;0.10;0.10;;;;;;;13.08;100.00;97396.94;7393169;19;20014;-78
2023/10/30 04:01:04;;;;;;;0.10;0.00;;;;;;;13.01;100.00;97398.38;7394311;19;20359;-79
2023/10/30 04:03:30;;;;;;;0.15;0.10;;;;;;;13.31;100.00;97401.31;7392629;19;20074;-79
2023/10/30 04:06:03;;;;;;;0.15;0.15;;;;;;;13.63;100.00;97398.81;7395378;19;20371;-79
2023/10/30 04:08:30;;;;;;;0.15;0.15;;;;;;;32.61;54.51;97369.59;7393129;19;20010;-79
2023/10/30 04:10:57;;;;;;;0.43;0.43;;;;;;;37.11;37.74;97370.63;7394137;19;20007;-79
2023/10/30 04:13:23;;;;;;;14.70;0.63;;;;;;;38.76;33.63;97364.00;7391747;19;20022;-79
2023/10/30 04:15:49;;;;;;;0.10;0.10;;;;;;;39.62;31.57;97370.78;7394020;19;20492;-79
2023/10/30 04:18:15;;;;;;;0.10;0.00;;;;;;;40.08;30.23;97365.31;7390708;19;20021;-79
2023/10/30 04:20:41;;;;;;;0.40;0.40;;;;;;;40.59;28.83;97367.69;7391785;19;20017;-79
2023/10/30 04:23:07;;;;;;;0.10;0.10;;;;;;;41.31;27.81;97363.84;7394541;19;20014;-79
2023/10/30 04:25:33;;;;;;;0.10;0.00;;;;;;;41.41;27.14;97363.69;7394801;19;20370;-80
2023/10/30 04:27:59;;;;;;;0.10;0.10;;;;;;;41.48;26.78;97370.88;7393531;19;20086;-79
2023/10/30 04:30:25;;;;;;;0.10;0.10;;;;;;;41.94;26.47;97371.63;7392318;19;20006;-79
2023/10/30 04:32:52;;;;;;;11.18;1.20;;;;;;;42.48;25.59;97361.88;7392026;19;20027;-79
2023/10/30 04:35:18;;;;;;;0.43;0.28;;;;;;;42.49;25.01;97375.03;7392478;19;20433;-79
2023/10/30 04:37:44;;;;;;;0.10;0.10;;;;;;;42.29;24.96;97372.47;7390423;19;20010;-79
2023/10/30 04:40:10;;;;;;;0.10;0.10;;;;;;;42.12;25.10;97374.25;7391798;19;20018;-79
2023/10/30 04:42:36;;;;;;;1.13;0.10;;;;;;;42.07;24.60;97375.81;7391436;19;20353;-79
2023/10/30 04:45:03;;;;;;;0.10;0.10;;;;;;;42.50;23.85;97375.75;7393753;19;20006;-78
2023/10/30 04:47:29;;;;;;;0.20;0.20;;;;;;;42.46;23.95;97379.47;7392339;19;20011;-79
2023/10/30 04:49:55;;;;;;;0.10;0.03;;;;;;;42.14;23.89;97380.06;7391548;19;20054;-79
2023/10/30 04:52:23;;;;;;;0.10;0.10;;;;;;;42.10;24.09;97372.09;7392127;19;20813;-79
2023/10/30 04:54:49;;;;;;;0.10;0.10;;;;;;;41.67;24.19;97379.41;7393621;19;20007;-79
2023/10/30 04:57:15;;;;;;;0.10;0.05;;;;;;;41.70;24.18;97378.59;7389707;19;20023;-79
2023/10/30 04:59:41;;;;;;;0.38;0.30;;;;;;;41.88;23.91;97374.66;7390201;19;20014;-80
2023/10/30 05:02:07;;;;;;;0.10;0.10;;;;;;;41.73;23.81;97370.53;7391274;19;20010;-79
2023/10/30 05:04:33;;;;;;;0.10;0.10;;;;;;;41.78;23.74;97372.63;7392172;19;20335;-79
2023/10/30 05:06:59;;;;;;;0.10;0.10;;;;;;;41.88;23.83;97381.22;7390876;19;20014;-79
2023/10/30 05:09:26;;;;;;;6.95;0.35;;;;;;;41.90;23.54;97380.47;7390976;19;20018;-79
2023/10/30 05:11:52;;;;;;;0.08;0.08;;;;;;;41.30;23.55;97388.69;7392730;19;20015;-79
2023/10/30 05:14:18;;;;;;;0.10;0.00;;;;;;;41.38;23.75;97384.94;7390109;19;20461;-79
2023/10/30 05:16:44;;;;;;;0.10;0.10;;;;;;;41.89;23.27;97387.81;7391138;19;20515;-79
2023/10/30 05:19:10;;;;;;;0.10;0.10;;;;;;;41.78;23.35;97390.16;7391349;19;20438;-79
2023/10/30 05:21:36;;;;;;;0.10;0.10;;;;;;;41.94;23.17;97383.31;7391806;19;20382;-79
2023/10/30 05:24:03;;;;;;;0.22;0.22;;;;;;;42.08;23.15;97391.88;7389939;19;19999;-79
2023/10/30 05:26:29;;;;;;;0.10;0.10;;;;;;;41.95;23.11;97384.78;7390357;19;20010;-79
2023/10/30 05:28:55;;;;;;;0.30;0.30;;;;;;;41.79;23.30;97385.78;7392288;19;20369;-79
2023/10/30 05:31:21;;;;;;;1.25;0.63;;;;;;;42.03;22.93;97390.47;7391692;19;20436;-79
2023/10/30 05:33:47;;;;;;;0.20;0.17;;;;;;;42.05;22.71;97382.38;7391879;19;20026;-79
2023/10/30 05:36:13;;;;;;;0.10;0.08;;;;;;;42.30;22.65;97388.53;7391471;19;20014;-79
2023/10/30 05:38:39;;;;;;;2.30;0.35;;;;;;;42.33;22.37;97389.94;7390458;19;20006;-79
2023/10/30 05:41:06;;;;;;;2.83;1.08;;;;;;;42.14;22.64;97394.69;7391012;19;20007;-79
2023/10/30 05:43:32;;;;;;;0.73;0.25;;;;;;;42.06;22.69;97392.63;7389492;19;20675;-79
2023/10/30 05:45:59;;;;;;;0.10;0.10;;;;;;;41.77;22.42;97393.84;7390415;19;20065;-79
2023/10/30 05:48:25;;;;;;;0.25;0.25;;;;;;;41.94;22.56;97395.00;7391344;19;20428;-79
2023/10/30 05:50:51;;;;;;;0.10;0.10;;;;;;;42.05;22.67;97394.09;7389168;19;20366;-79
2023/10/30 05:53:17;;;;;;;0.73;0.60;;;;;;;42.09;22.14;97399.16;7392084;19;20015;-79
2023/10/30 05:55:43;;;;;;;0.10;0.08;;;;;;;41.85;22.21;97393.69;7391344;19;20335;-79
2023/10/30 05:58:09;;;;;;;0.52;0.30;;;;;;;41.78;22.33;97401.16;7391453;19;20002;-79
2023/10/30 06:00:35;;;;;;;0.10;0.10;;;;;;;41.38;22.48;97402.47;7390063;19;20013;-79
2023/10/30 06:03:02;;;;;;;0.85;0.28;;;;;;;41.13;22.56;97413.72;7391067;19;20437;-79
2023/10/30 06:05:28;;;;;;;0.10;0.10;;;;;;;41.14;22.71;97402.78;7389693;19;20473;-79
2023/10/30 06:07:54;;;;;;;0.10;0.10;;;;;;;41.36;22.41;97402.50;7388247;19;20002;-79
2023/10/30 06:10:23;;;;;;;0.10;0.00;;;;;;;41.11;22.62;97410.84;7388605;19;20007;-79
2023/10/30 06:12:50;;;;;;;0.30;0.30;;;;;;;34.70;27.79;97417.91;7387983;19;20006;-79
2023/10/30 06:15:16;;;;;;;0.20;0.10;;;;;;;40.17;23.26;97408.97;7390950;19;20492;-79
2023/10/30 06:17:42;;;;;;;1.38;0.65;;;;;;;40.81;22.72;97419.97;7389674;19;20410;-79
2023/10/30 06:20:09;;;;;;;1.55;0.43;;;;;;;41.32;22.48;97406.22;7389109;19;20406;-79
2023/10/30 06:22:35;;;;;;;0.13;0.10;;;;;;;41.35;22.62;97410.53;7389348;19;20020;-79
2023/10/30 06:25:01;;;;;;;0.20;0.20;;;;;;;41.00;22.57;97418.28;7390037;19;20014;-79
2023/10/30 06:27:27;;;;;;;1.33;0.57;;;;;;;40.97;22.71;97413.97;7387725;19;20369;-79
2023/10/30 06:29:54;;;;;;;0.10;0.10;;;;;;;40.64;22.94;97425.28;7388279;19;20544;-79
2023/10/30 06:32:20;;;;;;;0.20;0.20;;;;;;;40.93;22.75;97425.69;7389055;19;20069;-79
2023/10/30 06:34:46;;;;;;;1.67;0.57;;;;;;;41.02;22.51;97429.94;7390535;19;20034;-79
2023/10/30 06:37:12;;;;;;;0.25;0.25;;;;;;;37.06;25.42;97444.63;7389243;19;20606;-79
2023/10/30 06:39:39;;;;;;;5.78;0.63;;;;;;;15.43;100.00;97485.38;7389190;19;20017;-79
2023/10/30 06:42:05;;;;;;;0.10;0.10;;;;;;;13.07;100.00;97482.06;7395646;19;20066;-79
2023/10/30 06:44:31;;;;;;;0.10;0.10;;;;;;;32.50;41.67;97451.50;7394676;19;20003;-78
2023/10/30 06:46:58;;;;;;;0.30;0.30;;;;;;;36.60;32.10;97435.69;7395789;19;20011;-79
2023/10/30 06:49:25;;;;;;;0.30;0.30;;;;;;;39.10;28.09;97441.72;7393996;19;20010;-79
2023/10/30 06:51:51;;;;;;;0.10;0.10;;;;;;;39.79;26.55;97442.78;7395338;19;20453;-79
2023/10/30 06:54:17;;;;;;;0.15;0.10;;;;;;;40.06;25.62;97447.00;7396442;19;20030;-79
2023/10/30 06:56:43;;;;;;;0.10;0.00;;;;;;;40.27;24.85;97435.84;7394386;19;20002;-79
2023/10/30 06:59:12;;;;;;;0.10;0.10;;;;;;;40.39;24.81;97437.94;7395917;19;20472;-79
2023/10/30 07:01:46;;;;;;;0.10;0.10;;;;;;;40.56;24.67;97442.88;7394068;19;20026;-79
2023/10/30 07:04:15;;;;;;;0.10;0.10;;;;;;;40.84;23.71;97447.72;7396248;19;20465;-79
2023/10/30 07:06:43;;;;;;;4.38;0.52;;;;;;;41.03;23.79;97443.09;7393482;19;20019;-79
2023/10/30 07:09:11;;;;;;;0.30;0.30;;;;;;;23.20;40.34;97473.03;7394361;19;20006;-79
2023/10/30 07:11:39;;;;;;;0.57;0.30;;;;;;;37.74;28.54;97466.59;7393533;19;20014;-79
2023/10/30 07:14:08;;;;;;;0.50;0.32;;;;;;;39.99;25.21;97468.91;7396405;19;20018;-79
2023/10/30 07:16:34;;;;;;;0.57;0.30;;;;;;;40.14;24.93;97469.50;7395559;19;20478;-79
2023/10/30 07:19:01;;;;;;;0.40;0.22;;;;;;;31.88;36.80;97479.47;7395097;19;20037;-79
2023/10/30 07:21:28;;;;;;;11.05;0.57;;;;;;;38.97;26.73;97478.16;7392810;19;20046;-79
2023/10/30 07:23:54;;;;;;;0.10;0.00;;;;;;;27.45;34.54;97495.00;7396276;19;20358;-79
2023/10/30 07:26:21;;;;;;;0.10;0.10;;;;;;;14.73;100.00;97542.09;7396387;19;20020;-79
2023/10/30 07:28:49;;;;;;;0.10;0.10;;;;;;;12.45;nan;97537.97;7394569;19;20021;-79
2023/10/30 07:31:17;;;;;;;0.10;0.10;;;;;;;11.53;nan;97545.84;7393762;19;20414;-79
2023/10/30 07:33:49;;;;;;;0.10;0.10;;;;;;;10.86;nan;97563.06;7393249;19;20011;-79
2023/10/30 07:36:15;;;;;;;0.10;0.10;;;;;;;10.56;nan;97569.66;7396188;19;20002;-79
2023/10/30 07:38:41;;;;;;;0.25;0.25;;;;;;;10.30;nan;97569.56;7393728;19;20006;-79
2023/10/30 07:41:10;;;;;;;15.65;0.65;;;;;;;10.20;nan;97576.06;7393836;19;20014;-79
2023/10/30 07:43:36;;;;;;;0.10;0.10;;;;;;;10.04;nan;97586.09;7394134;19;20529;-79
2023/10/30 07:46:03;;;;;;;0.10;0.10;;;;;;;9.99;nan;97588.94;7395667;19;20069;-79
2023/10/30 07:48:29;;;;;;;0.10;0.10;;;;;;;10.04;nan;97596.47;7392817;19;20007;-79
2023/10/30 07:50:55;;;;;;;0.10;0.10;;;;;;;9.97;nan;97603.38;7394699;19;20465;-78
2023/10/30 07:53:21;;;;;;;0.13;0.13;;;;;;;10.19;nan;97611.44;7393187;19;20014;-79
2023/10/30 07:55:47;;;;;;;0.10;0.10;;;;;;;10.28;nan;97610.31;7396729;19;20073;-79
2023/10/30 07:58:14;;;;;;;2.55;1.02;;;;;;;10.21;nan;97616.47;7393374;19;20018;-79
2023/10/30 08:00:41;;;;;;;0.10;0.10;;;;;;;10.19;nan;97619.78;7393216;19;20010;-79
2023/10/30 08:03:07;;;;;;;14.23;0.82;;;;;;;10.24;nan;97621.75;7394779;19;20492;-79
2023/10/30 08:05:33;;;;;;;0.10;0.00;;;;;;;10.31;nan;97614.84;7394020;19;20499;-80
2023/10/30 08:07:59;;;;;;;0.10;0.10;;;;;;;10.37;nan;97618.28;7393481;19;20014;-79
2023/10/30 08:10:30;;;;;;;0.20;0.20;;;;;;;10.43;nan;97628.06;7394390;19;20011;-78
2023/10/30 08:12:56;;;;;;;0.10;0.10;;;;;;;10.55;nan;97617.47;7394784;19;20010;-79
2023/10/30 08:15:22;;;;;;;0.28;0.28;;;;;;;10.55;nan;97618.25;7393401;19;20620;-79
2023/10/30 08:17:49;;;;;;;0.10;0.10;;;;;;;10.58;nan;97625.53;7392318;19;20015;-79
2023/10/30 08:20:15;;;;;;;0.10;0.00;;;;;;;10.70;nan;97628.16;7392659;19;20014;-79
2023/10/30 08:22:41;;;;;;;0.30;0.20;;;;;;;10.88;nan;97630.13;7392876;19;20400;-78
2023/10/30 08:25:07;;;;;;;0.20;0.20;;;;;;;10.96;nan;97628.22;7392771;19;20046;-79
2023/10/30 08:27:33;;;;;;;0.40;0.40;;;;;;;11.02;nan;97631.66;7390766;19;20018;-78
2023/10/30 08:30:00;;;;;;;2.33;1.00;;;;;;;10.89;nan;97634.41;7393334;19;20697;-79
2023/10/30 08:32:26;;;;;;;0.10;0.10;;;;;;;10.91;nan;97631.84;7390710;19;20342;-78
2023/10/30 08:34:54;;;;;;;0.30;0.30;;;;;;;10.92;nan;97638.91;7393662;19;20580;-78
2023/10/30 08:37:21;;;;;;;0.10;0.10;;;;;;;11.03;nan;97642.25;7391481;19;20022;-79
2023/10/30 08:39:47;;;;;;;3.75;1.30;;;;;;;11.01;nan;97642.06;7393261;19;20010;-79
2023/10/30 08:42:13;;;;;;;0.10;0.00;;;;;;;11.14;nan;97638.53;7391821;19;20620;-79
2023/10/30 08:44:39;;;;;;;0.55;0.55;;;;;;;11.17;nan;97638.25;7391072;19;20006;-78
2023/10/30 08:47:05;;;;;;;0.50;0.40;;;;;;;11.19;nan;97641.25;7393762;19;20485;-78
2023/10/30 08:49:32;;;;;;;0.10;0.10;;;;;;;11.48;nan;97639.44;7391420;19;20066;-79
2023/10/30 08:51:58;;;;;;;0.20;0.20;;;;;;;11.61;nan;97642.22;7391683;19;20018;-79
2023/10/30 08:54:24;;;;;;;0.10;0.10;;;;;;;11.99;nan;97640.75;7392146;19;20082;-79
2023/10/30 08:56:51;;;;;;;0.22;0.20;;;;;;;12.24;nan;97635.63;7392551;19;20572;-78
2023/10/30 08:59:18;;;;;;;0.10;0.03;;;;;;;12.01;nan;97640.94;7392217;19;20010;-78
2023/10/30 09:01:44;;;;;;;0.10;0.10;;;;;;;11.66;nan;97641.38;7390912;19;20071;-79
2023/10/30 09:04:10;;;;;;;1.23;0.30;;;;;;;11.71;nan;97639.78;7388948;19;20031;-78
2023/10/30 09:06:36;;;;;;;0.10;0.00;;;;;;;11.74;nan;97645.03;7393868;19;20015;-78
2023/10/30 09:09:03;;;;;;;0.30;0.30;;;;;;;11.58;nan;97648.88;7390953;19;20024;-78
2023/10/30 09:11:29;;;;;;;0.20;0.20;;;;;;;11.62;nan;97649.31;7390331;19;20006;-79
2023/10/30 09:13:55;;;;;;;0.25;0.10;;;;;;;11.64;nan;97646.72;7391285;19;20461;-79
2023/10/30 09:16:21;;;;;;;0.10;0.05;;;;;;;11.94;nan;97652.75;7367330;19;20045;-78
2023/10/30 09:18:47;;;;;;;1.75;0.35;;;;;;;11.75;nan;97646.53;7392820;19;20018;-78
2023/10/30 09:21:14;;;;;;;0.10;0.00;;;;;;;11.78;nan;97650.31;7388542;19;20115;-78
2023/10/30 09:23:43;;;;;;;0.10;0.03;;;;;;;11.95;nan;97643.06;7389956;19;20011;-79
2023/10/30 09:26:13;;;;;;;0.10;0.10;;;;;;;11.96;nan;97655.75;7387882;19;20038;-79
2023/10/30 09:28:40;;;;;;;0.20;0.20;;;;;;;12.41;nan;97654.81;7392096;19;20667;-79
2023/10/30 09:31:06;;;;;;;2.08;0.30;;;;;;;12.35;nan;97656.94;7387999;19;20045;-79
2023/10/30 09:33:32;;;;;;;0.38;0.17;;;;;;;12.23;nan;97644.53;7392095;19;20061;-79
2023/10/30 09:35:59;;;;;;;3.85;0.88;;;;;;;12.26;nan;97649.78;7389142;19;20353;-79
2023/10/30 09:38:25;;;;;;;0.30;0.20;;;;;;;12.48;nan;97649.28;7388813;19;20015;-79
2023/10/30 09:41:02;;;;;;;0.10;0.03;;;;;;;12.39;nan;97651.81;7389696;19;20013;-79
2023/10/30 09:43:28;;;;;;;0.10;0.00;;;;;;;12.44;nan;97659.28;7390164;19;20026;-79
2023/10/30 09:45:58;;;;;;;0.20;0.20;;;;;;;12.49;nan;97650.06;7402687;19;20034;-79
2023/10/30 09:48:25;;;;;;;0.10;0.10;;;;;;;12.57;nan;97648.09;7396746;19;20483;-79
2023/10/30 09:50:52;;;;;;;0.22;0.22;;;;;;;12.60;nan;97656.16;7395579;19;20069;-79
2023/10/30 09:53:19;;;;;;;2.15;0.52;;;;;;;12.81;nan;97654.13;7391115;19;20018;-79
2023/10/30 09:55:47;;;;;;;0.43;0.20;;;;;;;12.64;nan;97656.56;7391622;19;20002;-79
2023/10/30 09:58:15;;;;;;;0.98;0.52;;;;;;;12.96;nan;97650.72;7391781;19;20007;-79
2023/10/30 10:00:46;;;;;;;0.13;0.13;;;;;;;12.69;nan;97664.03;7390871;19;20014;-79
2023/10/30 10:03:12;;;;;;;;;;;;;;;12.65;nan;97662.88;7392150;19;20006;-78
2023/10/30 10:05:38;;;;;;;1.05;0.40;;;;;;;12.77;nan;97658.53;7389225;19;19955;-79
2023/10/30 10:08:05;;;;;;;0.25;0.25;;;;;;;12.91;nan;97665.56;7389049;19;20025;-79
2023/10/30 10:10:56;;;;;;;0.03;0.00;;;;;;;12.85;nan;97662.91;7387523;19;20017;-79
2023/10/30 10:13:24;;;;;;;0.20;0.20;;;;;;;13.28;nan;97662.38;7389630;19;20018;-80
2023/10/30 10:15:51;;;;;;;0.10;0.10;;;;;;;13.01;nan;97661.00;7388453;19;20030;-80
2023/10/30 10:18:34;;;;;;;0.17;0.17;;;;;;;12.93;nan;97671.34;7389056;19;20003;-79
2023/10/30 10:21:03;;;;;;;3.03;0.25;;;;;;;13.05;nan;97669.06;7387290;19;20017;-79
2023/10/30 10:23:33;;;;;;;0.13;0.13;;;;;;;13.27;nan;97672.06;7389160;19;20010;-80
2023/10/30 10:26:05;;;;;;;3.97;0.20;;;;;;;13.20;nan;97669.94;7390126;19;20010;-79
2023/10/30 10:28:32;;;;;;;0.10;0.05;;;;;;;13.43;nan;97679.25;7390188;19;20035;-79
2023/10/30 10:30:59;;;;;;;0.35;0.35;;;;;;;13.48;nan;97675.59;7390614;19;20010;-80
2023/10/30 10:33:32;;;;;;;0.10;0.10;;;;;;;13.56;nan;97678.41;7389760;19;20345;-79
2023/10/30 10:36:04;;;;;;;0.15;0.10;;;;;;;13.78;nan;97685.47;7389350;19;20021;-79
2023/10/30 10:38:31;;;;;;;12.05;0.32;;;;;;;13.74;nan;97683.03;7386571;19;20544;-79
2023/10/30 10:40:57;;;;;;;0.20;0.17;;;;;;;13.76;nan;97685.28;7388330;19;20381;-79
2023/10/30 10:43:28;;;;;;;0.00;0.00;;;;;;;13.97;nan;97677.59;7388306;19;20481;-80
2023/10/30 10:45:55;;;;;;;0.10;0.10;;;;;;;13.92;nan;97681.28;7388024;19;20339;-80
2023/10/30 10:48:25;;;;;;;1.25;0.43;;;;;;;13.89;nan;97673.97;7386137;19;20059;-80
2023/10/30 10:50:54;;;;;;;0.30;0.20;;;;;;;14.15;nan;97673.75;7389176;19;20436;-79
2023/10/30 10:53:23;;;;;;;0.00;0.00;;;;;;;14.52;nan;97670.38;7389625;19;20023;-80
2023/10/30 10:55:50;;;;;;;0.10;0.00;;;;;;;14.72;nan;97674.34;7389558;19;20002;-79
2023/10/30 10:58:25;;;;;;;0.10;0.00;;;;;;;14.90;nan;97674.00;7387624;19;20007;-79
2023/10/30 11:00:53;;;;;;;0.10;0.00;;;;;;;14.91;nan;97674.78;7386142;19;20014;-80
2023/10/30 11:03:23;;;;;;;0.10;0.10;;;;;;;15.09;nan;97682.09;7387151;19;20031;-80
2023/10/30 11:05:52;;;;;;;0.10;0.10;;;;;;;16.82;nan;97677.44;7386793;19;20010;-79
2023/10/30 11:08:38;;;;;;;0.10;0.00;;;;;;;17.57;nan;97674.09;7387125;19;20014;-79
2023/10/30 11:11:22;;;;;;;0.55;0.10;;;;;;;18.68;nan;97678.38;7388784;19;20013;-79
2023/10/30 11:14:08;;;;;;;0.03;0.03;;;;;;;16.18;nan;97684.44;7386578;19;20023;-80
2023/10/30 11:16:40;;;;;;;0.00;0.00;;;;;;;16.10;nan;97678.09;7387253;19;20011;-79
2023/10/30 11:19:07;;;;;;;0.52;0.22;;;;;;;17.05;nan;97673.16;7388399;19;20097;-79
2023/10/30 11:21:35;;;;;;;0.10;0.10;;;;;;;17.03;nan;97680.69;7387655;19;20018;-79
2023/10/30 11:24:02;;;;;;;0.75;0.68;;;;;;;17.30;nan;97679.53;7388239;19;20053;-80
2023/10/30 11:26:38;;;;;;;0.45;0.20;;;;;;;16.66;nan;97679.59;7389133;19;20477;-79
2023/10/30 11:29:44;;;;;;;0.22;0.10;;;;;;;18.12;nan;97668.13;7394300;19;20528;-80
2023/10/30 11:32:14;;;;;;;6.13;0.60;;;;;;;17.71;nan;97674.56;7392790;19;20015;-80
2023/10/30 11:34:43;;;;;;;0.43;0.30;;;;;;;17.25;nan;97682.59;7396352;19;20010;-80
2023/10/30 11:37:17;;;;;;;0.00;0.00;;;;;;;18.60;nan;97665.69;7395184;19;20014;-79